Key Largo, FL (33037)

3:50 AM EDT on September 05, 2015 (GMT -0400)
Angler's Park Florida | | Change Station
CLOSE
Current Station
Personal Weather Station
Location: Key Largo, FL
Elevation: 16 ft
Nearby Weather Stations

Elev 16 ft 25.14 °N, 80.41 °W | Updated 3 seconds ago

Partly Cloudy
Partly Cloudy
81.9 °F
Feels Like 89 °F
N
9.6
Wind Variable Wind from North
Gusts 12.3 mph

Today
High -- | Low -- °F
--% Chance of Precip.
Yesterday
High -- | Low -- °F
Precip. -- in
7:03 AM 7:36 PM
Waning Gibbous, 51% visible
Pressure 29.96 in
Visibility 10.0 miles
Clouds Mostly Cloudy 25000 ft
Heat Index 89 °F
Dew Point 75 °F
Humidity 80%
Rainfall 0.00 in
Snow Depth Not available.
UV 0.0 out of 12
Pollen 3.50 out of 12
Air Quality Not available.
Flu Activity Not available.
METAR KHST 050658Z 00000KT 10SM BKN250 25/23 A2995 RMK SLP145 ALSTG/SLP ESTMD
Pressure 29.96 in
Visibility 10.0 miles
Clouds Mostly Cloudy 25000 ft
Heat Index 89 °F
Dew Point 75 °F
Humidity 80%
Rainfall 0.00 in
Snow Depth Not available.
UV 0.0 out of 12
Pollen 3.50 out of 12
Air Quality Not available.
Flu Activity Not available.
METAR KHST 050658Z 00000KT 10SM BKN250 25/23 A2995 RMK SLP145 ALSTG/SLP ESTMD

10-Day Weather Forecast

×

Almanac

Astronomy

Sep. 05, 2015 Rise Set
Actual Time
Civil Twilight
Nautical Twilight
Astronomical Twilight
Moon
Length of Visible Light
Length of Day
Tomorrow will be .
, % of the Moon is Illuminated

Today's Extremes

State Highs State Lows

Community

WunderPhotos

Upload Photos

1,852,437 photos uploaded!

WunderBlogs® & News

Nearby

Air Quality

  Air Quality AQ Index Pollutant
Not available.

Snow Depth

Station Depth Elevation

Earthquake Activity

City Distance Mag. Time & Date
Minimum magnitude displayed is 2.5.

Coastal Water Temperatures

Place Temperature

Stations

Nearby Weather Stations

Station Location Temp. Windchill Dew Point Humidity Wind Precip. Elev Updated Type